createdAt,value
2022-12-24T00:01:03.825Z,90
2022-12-24T00:02:10.992Z,90
2022-12-24T00:03:18.231Z,90
2022-12-24T00:04:25.004Z,90
2022-12-24T00:05:32.152Z,90
2022-12-24T00:06:39.263Z,90
2022-12-24T00:07:46.443Z,90
2022-12-24T00:08:53.720Z,90
2022-12-24T00:10:00.839Z,91
2022-12-24T00:11:08.100Z,90
2022-12-24T00:12:15.135Z,90
2022-12-24T00:13:22.196Z,90
2022-12-24T00:14:29.103Z,91
2022-12-24T00:15:36.231Z,91
2022-12-24T00:16:43.540Z,91
2022-12-24T00:17:50.606Z,91
2022-12-24T00:18:57.794Z,91
2022-12-24T00:20:04.914Z,91
2022-12-24T00:21:12.083Z,90
2022-12-24T00:22:19.203Z,91
2022-12-24T00:23:26.080Z,90
2022-12-24T00:24:33.316Z,90
2022-12-24T00:25:40.414Z,91
2022-12-24T00:26:47.479Z,91
2022-12-24T00:27:54.654Z,91
2022-12-24T00:29:01.851Z,91
2022-12-24T00:30:09.135Z,90
2022-12-24T00:31:16.237Z,91
2022-12-24T00:32:23.310Z,91
2022-12-24T00:33:30.631Z,90
2022-12-24T00:34:37.832Z,90
2022-12-24T00:35:44.967Z,90
2022-12-24T00:36:52.227Z,90
2022-12-24T00:37:59.360Z,90
2022-12-24T00:39:06.427Z,90
2022-12-24T00:40:13.694Z,90
2022-12-24T00:41:20.767Z,90
2022-12-24T00:42:30.740Z,90
2022-12-24T00:43:37.858Z,90
2022-12-24T00:44:45.110Z,90
2022-12-24T00:45:52.302Z,90
2022-12-24T00:46:59.368Z,91
2022-12-24T00:48:06.567Z,90
2022-12-24T00:49:13.691Z,91
2022-12-24T00:50:20.962Z,91
2022-12-24T00:51:28.320Z,91
2022-12-24T00:52:35.363Z,90
2022-12-24T00:53:42.550Z,91
2022-12-24T00:54:49.662Z,91
2022-12-24T00:55:56.908Z,91
2022-12-24T00:57:04.156Z,90
2022-12-24T00:58:11.254Z,90
2022-12-24T00:59:18.337Z,90
2022-12-24T01:00:25.235Z,91
2022-12-24T01:01:32.546Z,91
2022-12-24T01:02:39.680Z,91
2022-12-24T01:03:46.894Z,90
2022-12-24T01:04:53.940Z,91
2022-12-24T01:06:06.356Z,91
2022-12-24T01:07:18.923Z,90
2022-12-24T01:08:25.791Z,90
2022-12-24T01:09:33.049Z,90
2022-12-24T01:10:40.083Z,90
2022-12-24T01:11:47.275Z,90
2022-12-24T01:12:54.338Z,90
2022-12-24T01:14:01.614Z,90
2022-12-24T01:15:08.790Z,90
2022-12-24T01:16:15.974Z,90
2022-12-24T01:17:23.020Z,91
2022-12-24T01:18:29.890Z,90
2022-12-24T01:19:37.046Z,90
2022-12-24T01:20:44.269Z,90
2022-12-24T01:21:51.413Z,90
2022-12-24T01:22:58.511Z,90
2022-12-24T01:24:05.767Z,91
2022-12-24T01:25:12.888Z,90
2022-12-24T01:26:19.973Z,90
2022-12-24T01:27:27.049Z,90
2022-12-24T01:28:34.141Z,91
2022-12-24T01:29:41.224Z,91
2022-12-24T01:30:48.398Z,90
2022-12-24T01:31:55.557Z,90
2022-12-24T01:33:02.648Z,91
2022-12-24T01:34:09.879Z,90
2022-12-24T01:35:17.018Z,91
2022-12-24T01:36:23.809Z,90
2022-12-24T01:37:30.955Z,91
2022-12-24T01:38:38.151Z,91
2022-12-24T01:39:45.297Z,91
2022-12-24T01:40:52.585Z,91
2022-12-24T01:42:04.781Z,91
2022-12-24T01:43:22.133Z,90
2022-12-24T01:44:35.445Z,90
2022-12-24T01:45:36.512Z,90
2022-12-24T01:46:54.337Z,90
2022-12-24T01:48:11.497Z,90
2022-12-24T01:49:26.552Z,90
2022-12-24T01:50:33.774Z,90
2022-12-24T01:51:40.874Z,90
2022-12-24T01:52:48.054Z,90
2022-12-24T01:53:55.188Z,90
2022-12-24T01:55:02.375Z,90
2022-12-24T01:56:09.677Z,91
2022-12-24T01:57:16.762Z,91
2022-12-24T01:58:29.258Z,91
2022-12-24T01:59:36.325Z,91
2022-12-24T02:00:43.467Z,91
2022-12-24T02:01:50.729Z,90
2022-12-24T02:02:57.912Z,90
2022-12-24T02:04:04.883Z,90
2022-12-24T02:05:12.188Z,91
2022-12-24T02:06:29.666Z,90
2022-12-24T02:07:36.814Z,91
2022-12-24T02:08:44.025Z,90
2022-12-24T02:09:51.237Z,90
2022-12-24T02:10:58.375Z,90
2022-12-24T02:12:05.641Z,90
2022-12-24T02:13:12.527Z,90
2022-12-24T02:14:19.686Z,90
2022-12-24T02:15:26.617Z,91
2022-12-24T02:16:33.936Z,91
2022-12-24T02:17:48.541Z,91
2022-12-24T02:19:01.787Z,91
2022-12-24T02:20:14.186Z,90
2022-12-24T02:21:31.605Z,91
2022-12-24T02:22:43.881Z,91
2022-12-24T02:24:01.369Z,91
2022-12-24T02:25:16.158Z,91
2022-12-24T02:26:30.685Z,91
2022-12-24T02:27:42.974Z,91
2022-12-24T02:28:52.645Z,91
2022-12-24T02:30:10.028Z,91
2022-12-24T02:31:22.520Z,91
2022-12-24T02:32:32.309Z,91
2022-12-24T02:33:45.090Z,91
2022-12-24T02:34:59.830Z,91
2022-12-24T02:36:10.066Z,91
2022-12-24T02:37:17.186Z,91
2022-12-24T02:38:26.605Z,91
2022-12-24T02:39:36.316Z,91
2022-12-24T02:40:49.085Z,91
2022-12-24T02:41:59.312Z,91
2022-12-24T02:43:11.809Z,91
2022-12-24T02:44:18.829Z,91
2022-12-24T02:45:26.072Z,91
2022-12-24T02:46:33.313Z,91
2022-12-24T02:47:40.449Z,91
2022-12-24T02:48:47.580Z,91
2022-12-24T02:49:54.906Z,91
2022-12-24T02:51:01.929Z,91
2022-12-24T02:52:09.066Z,91
2022-12-24T02:53:26.601Z,91
2022-12-24T02:54:34.111Z,91
2022-12-24T02:55:41.099Z,91
2022-12-24T02:56:48.214Z,91
2022-12-24T02:58:00.967Z,91
2022-12-24T02:59:13.273Z,91
2022-12-24T03:00:30.791Z,91
2022-12-24T03:01:48.246Z,91
2022-12-24T03:03:05.482Z,91
2022-12-24T03:04:22.837Z,91
2022-12-24T03:05:35.236Z,91
2022-12-24T03:06:48.044Z,91
2022-12-24T03:08:02.849Z,91
2022-12-24T03:09:10.149Z,91
2022-12-24T03:10:27.557Z,91
2022-12-24T03:11:40.352Z,91
2022-12-24T03:12:47.537Z,91
2022-12-24T03:13:54.683Z,91
2022-12-24T03:15:01.929Z,91
2022-12-24T03:16:09.605Z,91
2022-12-24T03:17:16.815Z,91
2022-12-24T03:18:23.885Z,91
2022-12-24T03:19:30.664Z,91
2022-12-24T03:20:37.913Z,91
2022-12-24T03:21:48.112Z,91
2022-12-24T03:22:55.276Z,91
2022-12-24T03:24:02.457Z,91
2022-12-24T03:25:09.592Z,91
2022-12-24T03:26:16.773Z,91
2022-12-24T03:27:23.917Z,91
2022-12-24T03:28:30.816Z,91
2022-12-24T03:29:37.964Z,91
2022-12-24T03:30:45.179Z,91
2022-12-24T03:31:52.460Z,91
2022-12-24T03:32:59.419Z,91
2022-12-24T03:34:06.573Z,91
2022-12-24T03:35:13.764Z,91
2022-12-24T03:36:20.908Z,91
2022-12-24T03:37:27.880Z,91
2022-12-24T03:38:34.867Z,90
2022-12-24T03:39:42.127Z,91
2022-12-24T03:40:49.258Z,91
2022-12-24T03:41:56.403Z,91
2022-12-24T03:43:03.576Z,91
2022-12-24T03:44:10.812Z,91
2022-12-24T03:45:17.966Z,91
2022-12-24T03:46:24.778Z,91
2022-12-24T03:47:31.875Z,91
2022-12-24T03:48:39.036Z,91
2022-12-24T03:49:46.257Z,91
2022-12-24T03:50:53.496Z,91
2022-12-24T03:52:00.492Z,91
2022-12-24T03:53:07.692Z,91
2022-12-24T03:54:14.866Z,91
2022-12-24T03:55:21.948Z,91
2022-12-24T03:56:28.821Z,91
2022-12-24T03:57:35.889Z,91
2022-12-24T03:58:43.121Z,91
2022-12-24T03:59:50.273Z,91
2022-12-24T04:00:57.532Z,91
2022-12-24T04:02:04.796Z,91
2022-12-24T04:03:11.837Z,91
2022-12-24T04:04:18.925Z,91
2022-12-24T04:05:25.772Z,91
2022-12-24T04:06:32.917Z,90
2022-12-24T04:07:40.088Z,91
2022-12-24T04:08:47.252Z,91
2022-12-24T04:09:54.494Z,90
2022-12-24T04:11:06.274Z,90
2022-12-24T04:12:08.796Z,90
2022-12-24T04:13:15.943Z,90
2022-12-24T04:14:23.090Z,90
2022-12-24T04:15:30.016Z,91
2022-12-24T04:16:37.339Z,91
2022-12-24T04:17:44.253Z,91
2022-12-24T04:18:51.393Z,91
2022-12-24T04:19:58.756Z,90
2022-12-24T04:21:06.012Z,90
2022-12-24T04:22:13.036Z,91
2022-12-24T04:23:19.989Z,90
2022-12-24T04:24:26.827Z,91
2022-12-24T04:25:34.079Z,90
2022-12-24T04:26:41.183Z,91
2022-12-24T04:27:48.331Z,90
2022-12-24T04:28:55.609Z,90
2022-12-24T04:30:02.716Z,90
2022-12-24T04:31:10.452Z,90
2022-12-24T04:32:17.590Z,90
2022-12-24T04:33:24.452Z,90
2022-12-24T04:34:31.476Z,90
2022-12-24T04:35:38.704Z,90
2022-12-24T04:36:45.863Z,90
2022-12-24T04:37:52.982Z,90
2022-12-24T04:39:00.108Z,90
2022-12-24T04:40:07.365Z,90
2022-12-24T04:41:20.679Z,90
2022-12-24T04:42:21.765Z,90
2022-12-24T04:43:29.133Z,90
2022-12-24T04:44:36.173Z,91
2022-12-24T04:45:43.396Z,90
2022-12-24T04:46:50.448Z,90
2022-12-24T04:47:57.758Z,91
2022-12-24T04:49:04.814Z,90
2022-12-24T04:50:11.898Z,90
2022-12-24T04:51:19.141Z,90
2022-12-24T04:52:25.917Z,90
2022-12-24T04:53:33.093Z,90
2022-12-24T04:54:40.463Z,91
2022-12-24T04:55:47.415Z,91
2022-12-24T04:56:54.716Z,91
2022-12-24T04:58:01.699Z,91
2022-12-24T04:59:08.956Z,90
2022-12-24T05:00:16.147Z,90
2022-12-24T05:01:23.493Z,91
2022-12-24T05:02:30.901Z,91
2022-12-24T05:03:37.756Z,91
2022-12-24T05:04:45.085Z,91
2022-12-24T05:05:55.168Z,90
2022-12-24T05:06:59.304Z,90
2022-12-24T05:08:06.651Z,91
2022-12-24T05:09:13.696Z,90
2022-12-24T05:10:20.777Z,91
2022-12-24T05:11:27.649Z,91
2022-12-24T05:12:34.825Z,90
2022-12-24T05:13:46.460Z,90
2022-12-24T05:14:49.292Z,91
2022-12-24T05:15:56.372Z,90
2022-12-24T05:17:03.468Z,90
2022-12-24T05:18:10.840Z,90
2022-12-24T05:19:17.703Z,90
2022-12-24T05:20:24.586Z,91
2022-12-24T05:21:31.819Z,91
2022-12-24T05:22:38.952Z,91
2022-12-24T05:23:52.018Z,91
2022-12-24T05:25:03.956Z,91
2022-12-24T05:26:16.242Z,91
2022-12-24T05:27:31.460Z,90
2022-12-24T05:28:38.459Z,91
2022-12-24T05:29:45.544Z,91
2022-12-24T05:30:52.784Z,91
2022-12-24T05:31:59.937Z,91
2022-12-24T05:33:07.074Z,91
2022-12-24T05:34:14.237Z,91
2022-12-24T05:35:21.361Z,91
2022-12-24T05:36:28.221Z,91
2022-12-24T05:37:35.387Z,91
2022-12-24T05:38:42.614Z,91
2022-12-24T05:39:49.691Z,91
2022-12-24T05:40:56.841Z,91
2022-12-24T05:42:04.002Z,91
2022-12-24T05:43:11.153Z,91
2022-12-24T05:44:18.220Z,91
2022-12-24T05:45:25.250Z,91
2022-12-24T05:46:32.587Z,91
2022-12-24T05:47:43.164Z,91
2022-12-24T05:48:46.622Z,91
2022-12-24T05:49:54.720Z,91
2022-12-24T05:51:01.966Z,91
2022-12-24T05:52:09.229Z,91
2022-12-24T05:53:16.404Z,91
2022-12-24T05:54:23.301Z,91
2022-12-24T05:55:30.293Z,91
2022-12-24T05:56:37.325Z,91
2022-12-24T05:57:44.546Z,91
2022-12-24T05:58:51.678Z,91
2022-12-24T05:59:58.886Z,91
2022-12-24T06:01:05.994Z,91
2022-12-24T06:02:14.080Z,91
2022-12-24T06:03:21.248Z,91
2022-12-24T06:04:29.092Z,91
2022-12-24T06:05:35.310Z,91
2022-12-24T06:06:42.435Z,91
2022-12-24T06:07:49.587Z,91
2022-12-24T06:08:56.776Z,91
2022-12-24T06:10:03.939Z,91
2022-12-24T06:11:11.651Z,91
2022-12-24T06:12:19.106Z,91
2022-12-24T06:13:26.131Z,91
2022-12-24T06:14:33.262Z,91
2022-12-24T06:15:40.436Z,91
2022-12-24T06:16:47.591Z,91
2022-12-24T06:17:54.720Z,91
2022-12-24T06:19:01.916Z,91
2022-12-24T06:20:09.046Z,91
2022-12-24T06:21:16.153Z,91
2022-12-24T06:22:23.371Z,91
2022-12-24T06:23:30.299Z,90
2022-12-24T06:24:37.356Z,91
2022-12-24T06:25:44.671Z,91
2022-12-24T06:26:51.585Z,91
2022-12-24T06:27:58.808Z,91
2022-12-24T06:29:05.948Z,91
2022-12-24T06:30:13.021Z,91
2022-12-24T06:31:20.431Z,91
2022-12-24T06:32:27.644Z,91
2022-12-24T06:33:34.761Z,91
2022-12-24T06:34:41.915Z,91
2022-12-24T06:35:49.090Z,91
2022-12-24T06:36:56.181Z,91
2022-12-24T06:38:03.371Z,91
2022-12-24T06:39:10.611Z,91
2022-12-24T06:40:17.667Z,91
2022-12-24T06:41:24.481Z,91
2022-12-24T06:42:31.634Z,91
2022-12-24T06:43:38.834Z,91
2022-12-24T06:44:51.112Z,91
2022-12-24T06:45:58.274Z,91
2022-12-24T06:47:05.511Z,91
2022-12-24T06:48:12.562Z,91
2022-12-24T06:49:19.637Z,91
2022-12-24T06:50:26.437Z,91
2022-12-24T06:51:33.614Z,91
2022-12-24T06:52:40.823Z,91
2022-12-24T06:53:48.072Z,91
2022-12-24T06:54:55.109Z,91
2022-12-24T06:56:02.283Z,91
2022-12-24T06:57:09.446Z,90
2022-12-24T06:58:16.497Z,91
2022-12-24T06:59:23.740Z,91
2022-12-24T07:00:30.754Z,91
2022-12-24T07:01:37.831Z,91
2022-12-24T07:02:44.913Z,91
2022-12-24T07:03:51.998Z,91
2022-12-24T07:04:59.152Z,91
2022-12-24T07:06:06.408Z,91
2022-12-24T07:07:23.662Z,91
2022-12-24T07:08:30.506Z,91
2022-12-24T07:09:37.667Z,91
2022-12-24T07:10:49.006Z,91
2022-12-24T07:11:52.319Z,91
2022-12-24T07:12:59.146Z,91
2022-12-24T07:14:06.288Z,91
2022-12-24T07:15:13.434Z,90
2022-12-24T07:16:20.753Z,91
2022-12-24T07:17:27.807Z,91
2022-12-24T07:18:34.732Z,90
2022-12-24T07:19:41.857Z,91
2022-12-24T07:20:49.294Z,90
2022-12-24T07:21:56.113Z,90
2022-12-24T07:23:02.887Z,91
2022-12-24T07:24:10.070Z,91
2022-12-24T07:25:17.088Z,91
2022-12-24T07:26:24.305Z,91
2022-12-24T07:27:31.120Z,91
2022-12-24T07:28:38.256Z,91
2022-12-24T07:29:45.487Z,91
2022-12-24T07:30:52.672Z,91
2022-12-24T07:31:59.738Z,91
2022-12-24T07:33:06.924Z,91
2022-12-24T07:34:14.043Z,91
2022-12-24T07:35:21.221Z,91
2022-12-24T07:36:28.404Z,91
2022-12-24T07:37:35.440Z,91
2022-12-24T07:38:42.390Z,91
2022-12-24T07:39:49.637Z,91
2022-12-24T07:40:56.881Z,91
2022-12-24T07:42:03.964Z,91
2022-12-24T07:43:11.252Z,91
2022-12-24T07:44:18.957Z,91
2022-12-24T07:45:26.029Z,91
2022-12-24T07:46:33.206Z,91
2022-12-24T07:47:40.284Z,91
2022-12-24T07:48:47.554Z,91
2022-12-24T07:49:54.740Z,91
2022-12-24T07:51:01.812Z,91
2022-12-24T07:52:08.953Z,91
2022-12-24T07:53:16.154Z,90
2022-12-24T07:54:23.410Z,91
2022-12-24T07:55:30.666Z,91
2022-12-24T07:56:37.944Z,91
2022-12-24T07:57:44.981Z,91
2022-12-24T07:58:52.169Z,91
2022-12-24T07:59:59.284Z,91
2022-12-24T08:01:06.514Z,90
2022-12-24T08:02:18.058Z,91
2022-12-24T08:03:20.883Z,90
2022-12-24T08:04:27.692Z,90
2022-12-24T08:05:34.677Z,90
2022-12-24T08:06:41.830Z,90
2022-12-24T08:07:49.005Z,91
2022-12-24T08:08:56.196Z,91
2022-12-24T08:10:03.414Z,91
2022-12-24T08:11:10.982Z,90
2022-12-24T08:12:18.208Z,90
2022-12-24T08:13:25.067Z,90
2022-12-24T08:14:32.235Z,90
2022-12-24T08:15:39.630Z,90
2022-12-24T08:16:46.761Z,90
2022-12-24T08:17:53.654Z,90
2022-12-24T08:19:00.816Z,90
2022-12-24T08:20:07.929Z,90
2022-12-24T08:21:15.093Z,90
2022-12-24T08:22:22.538Z,91
2022-12-24T08:23:29.782Z,90
2022-12-24T08:24:36.805Z,90
2022-12-24T08:25:44.047Z,90
2022-12-24T08:26:51.206Z,90
2022-12-24T08:27:58.403Z,90
2022-12-24T08:29:05.544Z,91
2022-12-24T08:30:16.155Z,90
2022-12-24T08:31:19.829Z,90
2022-12-24T08:32:26.635Z,90
2022-12-24T08:33:33.732Z,90
2022-12-24T08:34:40.895Z,90
2022-12-24T08:35:48.170Z,90
2022-12-24T08:36:55.355Z,90
2022-12-24T08:38:02.406Z,90
2022-12-24T08:39:09.619Z,90
2022-12-24T08:40:16.813Z,90
2022-12-24T08:41:23.939Z,90
2022-12-24T08:42:30.905Z,90
2022-12-24T08:43:38.010Z,90
2022-12-24T08:44:45.143Z,90
2022-12-24T08:45:52.350Z,90
2022-12-24T08:46:59.458Z,89
2022-12-24T08:48:06.786Z,89
2022-12-24T08:49:13.739Z,90
2022-12-24T08:50:20.893Z,89
2022-12-24T08:51:27.714Z,89
2022-12-24T08:52:34.879Z,89
2022-12-24T08:53:42.089Z,89
2022-12-24T08:54:49.373Z,89
2022-12-24T08:55:57.032Z,90
2022-12-24T08:57:09.345Z,90
2022-12-24T08:58:16.402Z,90
2022-12-24T08:59:23.473Z,89
2022-12-24T09:00:30.402Z,89
2022-12-24T09:01:37.682Z,89
2022-12-24T09:02:44.782Z,89
2022-12-24T09:03:51.864Z,89
2022-12-24T09:04:58.971Z,89
2022-12-24T09:06:06.128Z,89
2022-12-24T09:07:13.262Z,89
2022-12-24T09:08:20.478Z,89
2022-12-24T09:09:30.380Z,89
2022-12-24T09:10:34.682Z,89
2022-12-24T09:11:41.691Z,89
2022-12-24T09:12:48.884Z,89
2022-12-24T09:13:56.005Z,89
2022-12-24T09:15:04.262Z,89
2022-12-24T09:16:10.609Z,89
2022-12-24T09:17:17.566Z,89
2022-12-24T09:18:24.725Z,89
2022-12-24T09:19:31.543Z,88
2022-12-24T09:20:41.531Z,88
2022-12-24T09:21:45.924Z,88
2022-12-24T09:22:53.025Z,88
2022-12-24T09:24:00.214Z,89
2022-12-24T09:25:07.377Z,88
2022-12-24T09:26:14.509Z,88
2022-12-24T09:27:24.185Z,88
2022-12-24T09:28:31.079Z,88
2022-12-24T09:29:38.345Z,88
2022-12-24T09:30:45.410Z,88
2022-12-24T09:32:02.944Z,88
2022-12-24T09:33:09.994Z,88
2022-12-24T09:34:17.165Z,88
2022-12-24T09:35:24.647Z,88
2022-12-24T09:36:31.693Z,88
2022-12-24T09:37:38.875Z,88
2022-12-24T09:38:46.061Z,88
2022-12-24T09:39:54.901Z,88
2022-12-24T09:41:07.048Z,88
2022-12-24T09:42:14.089Z,88
2022-12-24T09:43:31.707Z,89
2022-12-24T09:44:39.314Z,89
2022-12-24T09:45:54.707Z,89
2022-12-24T09:47:12.215Z,89
2022-12-24T09:48:29.656Z,89
2022-12-24T09:49:37.085Z,89
2022-12-24T09:50:44.905Z,89
2022-12-24T09:52:02.322Z,89
2022-12-24T09:53:09.494Z,89
2022-12-24T09:54:19.225Z,89
2022-12-24T09:55:28.697Z,89
2022-12-24T09:56:40.964Z,89
2022-12-24T09:57:49.002Z,89
2022-12-24T09:58:56.281Z,88
2022-12-24T10:00:03.550Z,89
2022-12-24T10:01:15.935Z,89
2022-12-24T10:02:23.017Z,89
2022-12-24T10:03:29.809Z,89
2022-12-24T10:04:37.115Z,89
2022-12-24T10:05:44.173Z,89
2022-12-24T10:07:01.526Z,89
2022-12-24T10:08:18.971Z,89
2022-12-24T10:09:34.440Z,89
2022-12-24T10:10:44.334Z,89
2022-12-24T10:11:54.213Z,89
2022-12-24T10:13:09.545Z,89
2022-12-24T10:14:22.047Z,89
2022-12-24T10:15:40.123Z,89
2022-12-24T10:16:58.418Z,89
2022-12-24T10:18:10.681Z,89
2022-12-24T10:19:20.320Z,89
2022-12-24T10:20:27.188Z,89
2022-12-24T10:21:34.344Z,89
2022-12-24T10:22:49.910Z,89
2022-12-24T10:23:57.665Z,89
2022-12-24T10:25:09.607Z,88
2022-12-24T10:26:24.557Z,88
2022-12-24T10:27:34.495Z,88
2022-12-24T10:28:43.584Z,88
2022-12-24T10:29:51.955Z,88
2022-12-24T10:31:06.951Z,88
2022-12-24T10:32:13.808Z,88
2022-12-24T10:33:29.775Z,88
2022-12-24T10:34:37.031Z,88
2022-12-24T10:35:46.789Z,88
2022-12-24T10:36:54.824Z,88
2022-12-24T10:38:02.120Z,88
2022-12-24T10:39:10.472Z,88
2022-12-24T10:40:20.580Z,88
2022-12-24T10:41:35.714Z,88
2022-12-24T10:42:48.302Z,88
2022-12-24T10:43:50.197Z,88
2022-12-24T10:45:03.237Z,88
2022-12-24T10:46:10.459Z,88
2022-12-24T10:47:17.773Z,88
2022-12-24T10:48:25.061Z,88
2022-12-24T10:49:32.122Z,88
2022-12-24T10:50:47.365Z,88
2022-12-24T10:51:59.672Z,88
2022-12-24T10:53:06.961Z,87
2022-12-24T10:54:26.458Z,87
2022-12-24T10:55:48.455Z,87
2022-12-24T10:56:55.665Z,87
2022-12-24T10:58:02.789Z,87
2022-12-24T10:59:09.981Z,87
2022-12-24T11:00:28.446Z,87
2022-12-24T11:01:38.529Z,87
2022-12-24T11:02:45.690Z,87
2022-12-24T11:03:52.800Z,87
2022-12-24T11:05:05.114Z,87
2022-12-24T11:06:17.317Z,87
2022-12-24T11:07:24.652Z,87
2022-12-24T11:08:31.764Z,87
2022-12-24T11:09:39.843Z,87
2022-12-24T11:10:46.636Z,86
2022-12-24T11:12:40.178Z,86
2022-12-24T11:13:47.135Z,86
2022-12-24T11:14:54.697Z,86
2022-12-24T11:16:07.217Z,86
2022-12-24T11:17:19.458Z,86
2022-12-24T11:20:00.310Z,86
2022-12-24T11:21:08.566Z,85
2022-12-24T11:22:15.452Z,84
2022-12-24T11:23:22.547Z,85
2022-12-24T11:24:29.446Z,85
2022-12-24T11:25:39.136Z,85
2022-12-24T11:26:46.231Z,85
2022-12-24T11:27:53.887Z,84
2022-12-24T11:29:01.247Z,85
2022-12-24T11:30:11.841Z,85
2022-12-24T11:31:19.726Z,85
2022-12-24T11:32:26.431Z,85
2022-12-24T11:33:33.539Z,85
2022-12-24T11:34:48.417Z,85
2022-12-24T11:35:58.656Z,85
2022-12-24T11:37:14.051Z,85
2022-12-24T11:38:24.198Z,84
2022-12-24T11:39:31.083Z,81
2022-12-24T11:40:38.403Z,82
2022-12-24T11:41:45.466Z,82
2022-12-24T11:42:52.531Z,82
2022-12-24T11:43:59.789Z,80
2022-12-24T11:45:09.452Z,80
2022-12-24T11:50:17.953Z,80
2022-12-24T11:51:26.572Z,80
2022-12-24T11:52:33.787Z,80
2022-12-24T11:53:41.983Z,79
2022-12-24T11:54:59.347Z,80
2022-12-24T11:56:17.528Z,80
2022-12-24T11:57:29.642Z,80
2022-12-24T11:58:37.061Z,80
2022-12-24T11:59:47.243Z,80
2022-12-24T12:00:54.339Z,80
2022-12-24T12:02:11.675Z,80
2022-12-24T12:03:26.744Z,80
2022-12-24T12:04:34.948Z,80
2022-12-24T12:05:42.943Z,80
2022-12-24T12:06:50.034Z,80
2022-12-24T12:07:57.108Z,80
2022-12-24T12:09:12.405Z,80
2022-12-24T12:10:30.000Z,80
2022-12-24T12:11:37.013Z,80
2022-12-24T12:12:44.246Z,80
2022-12-24T12:13:51.373Z,80
2022-12-24T12:14:58.584Z,81
2022-12-24T12:16:05.905Z,80
2022-12-24T12:17:18.886Z,80
2022-12-24T12:18:31.898Z,80
2022-12-24T12:19:39.428Z,80
2022-12-24T12:20:50.642Z,80
2022-12-24T12:21:57.635Z,80
2022-12-24T12:23:04.888Z,80
2022-12-24T12:24:25.514Z,81
2022-12-24T12:25:28.930Z,80
2022-12-24T12:26:41.295Z,81
2022-12-24T12:27:48.314Z,81
2022-12-24T12:28:55.599Z,81
2022-12-24T12:30:07.891Z,81
2022-12-24T12:31:18.420Z,81
2022-12-24T12:40:09.619Z,81
2022-12-24T12:41:17.043Z,81
2022-12-24T12:42:34.550Z,82
2022-12-24T12:43:41.675Z,81
2022-12-24T12:45:00.118Z,81
2022-12-24T12:54:00.715Z,81
2022-12-24T12:55:24.020Z,82
2022-12-24T12:56:30.558Z,82
2022-12-24T12:57:37.784Z,82
2022-12-24T12:58:44.981Z,82
2022-12-24T13:00:00.125Z,82
2022-12-24T13:01:07.538Z,82
2022-12-24T13:02:24.870Z,82
2022-12-24T13:03:38.265Z,82
2022-12-24T14:10:50.247Z,82
2022-12-24T14:12:00.113Z,80
2022-12-24T14:13:07.302Z,80
2022-12-24T14:14:24.737Z,80
2022-12-24T14:15:37.380Z,80
2022-12-24T14:20:21.912Z,80
2022-12-24T14:21:29.148Z,80
2022-12-24T14:22:36.236Z,80
2022-12-24T14:23:43.414Z,80
2022-12-24T14:24:55.730Z,80
2022-12-24T14:26:05.415Z,80
2022-12-24T14:27:13.579Z,80
2022-12-24T14:28:26.731Z,80
2022-12-24T14:29:33.837Z,80
2022-12-24T14:38:40.212Z,80
2022-12-24T14:39:47.219Z,80
2022-12-24T14:40:54.399Z,80
2022-12-24T14:42:08.376Z,80
2022-12-24T14:43:26.026Z,80
2022-12-24T14:54:58.948Z,80
2022-12-24T14:56:06.112Z,80
2022-12-24T14:57:13.237Z,81
2022-12-24T14:58:28.529Z,81
2022-12-24T14:59:41.040Z,81
2022-12-24T15:14:40.796Z,82
2022-12-24T15:15:52.161Z,82
2022-12-24T15:16:55.116Z,82
2022-12-24T15:18:07.368Z,82
2022-12-24T15:20:13.966Z,82
2022-12-24T15:21:21.200Z,82
2022-12-24T15:22:34.337Z,82
2022-12-24T15:23:41.313Z,82
2022-12-24T15:24:48.501Z,82
2022-12-24T15:29:03.507Z,82
2022-12-24T15:30:07.980Z,82
2022-12-24T15:31:18.752Z,82
2022-12-24T15:32:25.450Z,82
2022-12-24T15:37:23.436Z,83
2022-12-24T15:38:30.277Z,83
2022-12-24T15:39:43.616Z,83
2022-12-24T15:40:58.991Z,83
2022-12-24T15:42:06.188Z,83
2022-12-24T15:46:12.724Z,84
2022-12-24T15:47:24.703Z,84
2022-12-24T15:48:31.621Z,84
2022-12-24T15:49:38.838Z,84
2022-12-24T16:01:19.507Z,84
2022-12-24T16:02:29.701Z,85
2022-12-24T16:03:41.679Z,85
2022-12-24T16:04:53.760Z,85
2022-12-24T16:06:01.003Z,85
2022-12-24T16:07:21.577Z,85
2022-12-24T16:08:28.804Z,85
2022-12-24T16:09:36.290Z,85
2022-12-24T16:10:46.517Z,85
2022-12-24T16:12:04.204Z,85
2022-12-24T16:13:16.383Z,85
2022-12-24T16:14:23.615Z,85
2022-12-24T16:15:31.072Z,85
2022-12-24T16:16:38.195Z,85
2022-12-24T16:17:45.348Z,85
2022-12-24T16:18:52.496Z,85
2022-12-24T16:19:59.641Z,85
2022-12-24T16:21:06.717Z,85
2022-12-24T16:22:13.523Z,85
2022-12-24T16:23:25.733Z,85
2022-12-24T16:24:37.854Z,85
2022-12-24T16:25:44.904Z,85
2022-12-24T16:26:52.099Z,85
2022-12-24T16:28:00.748Z,85
2022-12-24T16:29:06.412Z,85
2022-12-24T16:30:13.614Z,85
2022-12-24T16:31:20.841Z,85
2022-12-24T16:32:33.268Z,85
2022-12-24T16:33:40.404Z,85
2022-12-24T16:34:47.585Z,85
2022-12-24T16:35:55.554Z,85
2022-12-24T16:37:03.468Z,85
2022-12-24T16:38:10.631Z,85
2022-12-24T16:39:17.754Z,85
2022-12-24T16:40:28.123Z,85
2022-12-24T16:41:34.282Z,86
2022-12-24T16:43:19.155Z,86
2022-12-24T16:44:31.322Z,86
2022-12-24T16:45:38.443Z,86
2022-12-24T16:46:45.831Z,86
2022-12-24T16:47:52.889Z,86
2022-12-24T16:48:59.928Z,86
2022-12-24T16:50:07.151Z,86
2022-12-24T16:51:14.183Z,86
2022-12-24T16:52:21.384Z,86
2022-12-24T16:58:26.348Z,86
2022-12-24T16:59:33.442Z,85
2022-12-24T17:00:40.777Z,85
2022-12-24T17:01:47.888Z,85
2022-12-24T17:02:55.185Z,85
2022-12-24T17:25:05.987Z,86
2022-12-24T17:26:15.211Z,86
2022-12-24T17:27:20.349Z,86
2022-12-24T17:28:27.425Z,86
2022-12-24T17:29:34.362Z,86
2022-12-24T17:30:41.559Z,86
2022-12-24T17:31:48.704Z,86
2022-12-24T17:32:56.059Z,86
2022-12-24T17:34:03.070Z,85
2022-12-24T17:39:33.759Z,85
2022-12-24T17:40:40.682Z,85
2022-12-24T17:41:47.820Z,85
2022-12-24T17:42:55.169Z,85
2022-12-24T17:44:02.205Z,85
2022-12-24T17:51:45.786Z,86
2022-12-24T17:52:50.693Z,86
2022-12-24T17:53:57.654Z,86
2022-12-24T17:55:04.843Z,86
2022-12-24T17:56:35.756Z,86
2022-12-24T17:57:43.046Z,86
2022-12-24T17:58:49.994Z,86
2022-12-24T17:59:57.144Z,86
2022-12-24T18:01:04.462Z,86
2022-12-24T18:02:54.336Z,86
2022-12-24T18:04:01.444Z,86
2022-12-24T18:05:08.500Z,86
2022-12-24T18:06:15.645Z,86
2022-12-24T18:07:22.799Z,86
2022-12-24T18:08:31.504Z,86
2022-12-24T18:09:38.390Z,86
2022-12-24T18:10:45.532Z,86
2022-12-24T18:11:52.893Z,86
2022-12-24T18:12:59.887Z,86
2022-12-24T18:14:17.023Z,86
2022-12-24T18:15:23.934Z,86
2022-12-24T18:16:31.362Z,86
2022-12-24T18:17:38.512Z,85
2022-12-24T18:18:45.592Z,85
2022-12-24T18:20:46.205Z,85
2022-12-24T18:21:47.701Z,85
2022-12-24T18:22:54.915Z,85
2022-12-24T18:24:02.075Z,85
2022-12-24T18:25:09.195Z,85
2022-12-24T18:26:23.211Z,86
2022-12-24T18:27:30.243Z,85
2022-12-24T18:28:37.023Z,86
2022-12-24T18:29:44.399Z,85
2022-12-24T18:30:51.354Z,85
2022-12-24T18:32:00.592Z,85
2022-12-24T18:33:07.754Z,85
2022-12-24T18:34:14.918Z,85
2022-12-24T18:35:22.058Z,85
2022-12-24T18:36:36.262Z,85
2022-12-24T18:37:43.214Z,85
2022-12-24T18:38:50.455Z,85
2022-12-24T18:39:57.542Z,85
2022-12-24T18:41:04.995Z,86
2022-12-24T18:42:11.895Z,86
2022-12-24T18:43:19.088Z,86
2022-12-24T18:44:26.251Z,85
2022-12-24T18:45:33.106Z,85
2022-12-24T18:47:04.531Z,85
2022-12-24T18:48:11.467Z,85
2022-12-24T18:49:18.175Z,85
2022-12-24T18:50:25.391Z,85
2022-12-24T18:51:32.304Z,85
2022-12-24T18:52:39.345Z,85
2022-12-24T18:53:46.560Z,85
2022-12-24T18:54:53.706Z,85
2022-12-24T18:56:00.862Z,85
2022-12-24T18:57:35.470Z,85
2022-12-24T18:58:42.639Z,85
2022-12-24T18:59:49.737Z,85
2022-12-24T19:00:56.903Z,85
2022-12-24T19:02:04.211Z,84
2022-12-24T19:03:15.886Z,85
2022-12-24T19:04:19.339Z,84
2022-12-24T19:05:26.554Z,84
2022-12-24T19:06:33.368Z,84
2022-12-24T19:07:43.566Z,84
2022-12-24T19:09:00.029Z,84
2022-12-24T19:09:57.858Z,84
2022-12-24T19:11:05.042Z,84
2022-12-24T19:12:11.816Z,85
2022-12-24T19:13:20.608Z,85
2022-12-24T19:14:27.719Z,85
2022-12-24T19:15:36.009Z,85
2022-12-24T19:16:42.185Z,85
2022-12-24T19:17:49.329Z,85
2022-12-24T19:19:10.954Z,85
2022-12-24T19:20:18.028Z,85
2022-12-24T19:21:25.254Z,85